Latest Weather Observations for West Roebuck

IDW60801

Issued at 8:03 am WST Monday 25 July 2016 (issued every 30 minutes, with the page automatically refreshed every 10 minutes)

About weather observations | Map of weather stations | Latest weather observations for WA | Other Formats
Station Details ID: 003096 Name: WEST ROEBUCK Lat: -17.90 Lon: 122.31 Height: 32.0 m
Data from the previous 72 hours. | See also: Recent months at West Roebuck
Date/Time
WST
Temp
°C
App
Temp
°C
Dew
Point
°C
Rel
Hum
%
Delta-T
°C
Wind Press
QNH
hPa
Press
MSL
hPa
Rain since
9am
mm
Dir  Spd
km/h
Gust
km/h
Spd
kts
Gust
kts
25/08:00am 22.2 - - - - ESE 19 26 10 14 - - 0.0
25/07:30am 19.8 - - - - ESE 15 22 8 12 - - 0.0
25/07:00am 17.7 - - - - ESE 11 17 6 9 - - 0.0
25/06:30am 16.8 - - - - ESE 13 17 7 9 - - 0.0
25/06:00am 17.5 - - - - ESE 13 17 7 9 - - 0.0
25/05:30am 18.1 - - - - ESE 13 17 7 9 - - 0.0
25/05:00am 18.0 - - - - ESE 13 19 7 10 - - 0.0
25/04:30am 17.4 - - - - ESE 13 17 7 9 - - 0.0
25/04:00am 16.5 - - - - ESE 11 13 6 7 - - 0.0
25/03:30am 17.0 - - - - ESE 11 13 6 7 - - 0.0
25/03:00am 18.1 - - - - E 13 17 7 9 - - 0.0
25/02:30am 18.2 - - - - ESE 11 15 6 8 - - 0.0
25/02:00am 17.7 - - - - ESE 11 13 6 7 - - 0.0
25/01:30am 18.1 - - - - ESE 11 13 6 7 - - 0.0
25/01:00am 17.7 - - - - ESE 11 13 6 7 - - 0.0
25/12:30am 18.6 - - - - ESE 11 13 6 7 - - 0.0
25/12:00am 19.5 - - - - ESE 13 17 7 9 - - 0.0
 
Date/Time
WST
Temp
°C
App
Temp
°C
Dew
Point
°C
Rel
Hum
%
Delta-T
°C
Wind Press
QNH
hPa
Press
MSL
hPa
Rain since
9am
mm
Dir  Spd
km/h
Gust
km/h
Spd
kts
Gust
kts
24/11:30pm 19.3 - - - - ESE 11 13 6 7 - - 0.0
24/11:00pm 19.6 - - - - ESE 11 13 6 7 - - 0.0
24/10:30pm 20.6 - - - - ESE 13 17 7 9 - - 0.0
24/10:00pm 19.7 - - - - ESE 11 17 6 9 - - 0.0
24/09:30pm 19.7 - - - - ESE 9 11 5 6 - - 0.0
24/09:00pm 21.5 - - - - SE 9 11 5 6 - - 0.0
24/08:30pm 22.9 - - - - SE 11 13 6 7 - - 0.0
24/08:00pm 23.8 - - - - SE 11 13 6 7 - - 0.0
24/07:30pm 24.0 - - - - SE 11 13 6 7 - - 0.0
24/07:00pm 24.7 - - - - SE 11 13 6 7 - - 0.0
24/06:30pm 26.0 - - - - SE 11 13 6 7 - - 0.0
24/06:00pm 27.4 - - - - SE 9 11 5 6 - - 0.0
24/05:30pm 29.9 - - - - SE 9 13 5 7 - - 0.0
24/05:00pm 32.0 - - - - ESE 15 22 8 12 - - 0.0
24/04:30pm 32.8 - - - - SE 17 24 9 13 - - 0.0
24/04:00pm 33.6 - - - - ESE 15 24 8 13 - - 0.0
24/03:30pm 33.9 - - - - ESE 15 24 8 13 - - 0.0
24/03:00pm 34.1 - - - - E 19 26 10 14 - - 0.0
24/02:30pm 33.9 - - - - ESE 22 33 12 18 - - 0.0
24/02:00pm 34.0 - - - - E 20 33 11 18 - - 0.0
24/01:30pm 33.5 - - - - ESE 20 32 11 17 - - 0.0
24/01:00pm 33.2 - - - - E 20 35 11 19 - - 0.0
24/12:30pm 33.1 - - - - ENE 20 33 11 18 - - 0.0
24/12:00pm 32.2 - - - - ENE 20 33 11 18 - - 0.0
24/11:30am 31.9 - - - - NE 20 35 11 19 - - 0.0
24/11:00am 31.0 - - - - NE 20 33 11 18 - - 0.0
24/10:30am 30.7 - - - - E 22 37 12 20 - - 0.0
24/10:00am 28.8 - - - - ESE 28 41 15 22 - - 0.0
24/09:30am 27.6 - - - - ESE 22 35 12 19 - - 0.0
24/09:00am 25.1 - - - - ESE 20 30 11 16 - - 0.0
24/08:30am 23.9 - - - - E 19 28 10 15 - - 0.0
24/08:00am 22.5 - - - - E 15 28 8 15 - - 0.0
24/07:30am 20.4 - - - - E 11 19 6 10 - - 0.0
24/07:00am 17.3 - - - - E 11 15 6 8 - - 0.0
24/06:30am 15.4 - - - - ESE 11 15 6 8 - - 0.0
24/06:00am 16.9 - - - - ESE 11 13 6 7 - - 0.0
24/05:30am 17.4 - - - - ESE 13 15 7 8 - - 0.0
24/05:00am 17.9 - - - - ESE 11 15 6 8 - - 0.0
24/04:30am 19.2 - - - - ESE 15 22 8 12 - - 0.0
24/04:00am 18.9 - - - - SE 15 17 8 9 - - 0.0
24/03:30am 17.4 - - - - ESE 11 13 6 7 - - 0.0
24/03:00am 17.3 - - - - E 11 13 6 7 - - 0.0
24/02:30am 17.7 - - - - E 11 17 6 9 - - 0.0
24/02:00am 17.1 - - - - E 9 13 5 7 - - 0.0
24/01:30am 18.3 - - - - ESE 9 13 5 7 - - 0.0
24/01:00am 19.0 - - - - ESE 11 17 6 9 - - 0.0
24/12:30am 18.8 - - - - E 11 17 6 9 - - 0.0
24/12:00am 18.8 - - - - SE 11 15 6 8 - - 0.0
 
Date/Time
WST
Temp
°C
App
Temp
°C
Dew
Point
°C
Rel
Hum
%
Delta-T
°C
Wind Press
QNH
hPa
Press
MSL
hPa
Rain since
9am
mm
Dir  Spd
km/h
Gust
km/h
Spd
kts
Gust
kts
23/11:30pm 19.7 - - - - ESE 11 13 6 7 - - 0.0
23/11:00pm 20.4 - - - - ESE 11 13 6 7 - - 0.0
23/10:30pm 19.6 - - - - ESE 11 13 6 7 - - 0.0
23/10:00pm 19.5 - - - - SE 11 13 6 7 - - 0.0
23/09:30pm 19.2 - - - - SSE 9 9 5 5 - - 0.0
23/09:00pm 18.3 - - - - S 9 9 5 5 - - 0.0
23/08:30pm 19.7 - - - - S 7 13 4 7 - - 0.0
23/08:00pm 21.0 - - - - SSW 7 9 4 5 - - 0.0
23/07:30pm 22.1 - - - - S 9 13 5 7 - - 0.0
23/07:00pm 22.8 - - - - SSW 11 13 6 7 - - 0.0
23/06:30pm 23.2 - - - - S 9 13 5 7 - - 0.0
23/06:00pm 24.8 - - - - S 7 11 4 6 - - 0.0
23/05:30pm 27.4 - - - - S 11 13 6 7 - - 0.0
23/05:29pm 27.5 - - - - S 9 13 5 7 - - 0.0
23/05:00pm 32.6 - - - - SSE 9 15 5 8 - - 0.0
23/04:30pm 33.9 - - - - ESE 9 20 5 11 - - 0.0
23/04:00pm 34.5 - - - - SE 13 20 7 11 - - 0.0
23/03:30pm 34.5 - - - - ESE 17 24 9 13 - - 0.0
23/03:00pm 34.9 - - - - ESE 13 24 7 13 - - 0.0
23/02:30pm 35.1 - - - - E 13 20 7 11 - - 0.0
23/02:00pm 34.8 - - - - SE 13 20 7 11 - - 0.0
23/01:30pm 34.9 - - - - E 13 22 7 12 - - 0.0
23/01:00pm 34.6 - - - - ESE 15 22 8 12 - - 0.0
23/12:30pm 34.7 - - - - ENE 13 24 7 13 - - 0.0
23/12:00pm 34.0 - - - - E 13 20 7 11 - - 0.0
23/11:30am 33.3 - - - - E 15 26 8 14 - - 0.0
23/11:00am 31.8 - - - - E 13 24 7 13 - - 0.0
23/10:30am 30.1 - - - - ESE 15 26 8 14 - - 0.0
23/10:00am 28.4 - - - - E 19 28 10 15 - - 0.0
23/09:30am 27.1 - - - - E 17 22 9 12 - - 0.0
23/09:00am 25.4 - - - - ESE 15 24 8 13 - - 0.0
23/08:30am 23.6 - - - - SE 13 20 7 11 - - 0.0
23/08:00am 21.9 - - - - ESE 15 20 8 11 - - 0.0
23/07:30am 19.8 - - - - SE 11 17 6 9 - - 0.0
23/07:00am 17.5 - - - - ESE 11 15 6 8 - - 0.0
23/06:30am 16.5 - - - - SE 11 13 6 7 - - 0.0
23/06:00am 16.6 - - - - SE 13 15 7 8 - - 0.0
23/05:30am 16.7 - - - - SE 13 15 7 8 - - 0.0
23/05:00am 15.0 - - - - ESE 9 13 5 7 - - 0.0
23/04:30am 16.2 - - - - ESE 9 11 5 6 - - 0.0
23/04:00am 17.7 - - - - SE 9 13 5 7 - - 0.0
23/03:30am 18.7 - - - - SE 11 15 6 8 - - 0.0
23/03:00am 19.5 - - - - SE 13 17 7 9 - - 0.0
23/02:30am 17.4 - - - - SSE 11 15 6 8 - - 0.0
23/02:00am 16.7 - - - - SSW 7 9 4 5 - - 0.0
23/01:30am 16.9 - - - - NW 6 9 3 5 - - 0.0
23/01:00am 16.8 - - - - NW 11 11 6 6 - - 0.0
23/12:30am 16.7 - - - - NNW 9 11 5 6 - - 0.0
23/12:00am 16.6 - - - - NNW 11 11 6 6 - - 0.0
 
Date/Time
WST
Temp
°C
App
Temp
°C
Dew
Point
°C
Rel
Hum
%
Delta-T
°C
Wind Press
QNH
hPa
Press
MSL
hPa
Rain since
9am
mm
Dir  Spd
km/h
Gust
km/h
Spd
kts
Gust
kts
22/11:30pm 17.1 - - - - NNW 9 11 5 6 - - 0.0
22/11:00pm 17.9 - - - - NW 9 9 5 5 - - 0.0
22/10:30pm 17.8 - - - - W 9 11 5 6 - - 0.0
22/10:00pm 19.8 - - - - S 6 9 3 5 - - 0.0
22/09:30pm 21.2 - - - - SSW 9 11 5 6 - - 0.0
22/09:00pm 21.2 - - - - SSW 9 11 5 6 - - 0.0
22/08:30pm 21.7 - - - - SW 9 17 5 9 - - 0.0
22/08:00pm 21.8 - - - - SW 9 13 5 7 - - 0.0
22/07:30pm 22.0 - - - - SW 11 13 6 7 - - 0.0
22/07:00pm 22.4 - - - - SW 9 13 5 7 - - 0.0
22/06:30pm 22.5 - - - - SW 9 13 5 7 - - 0.0
22/06:00pm 24.0 - - - - SW 7 9 4 5 - - 0.0
22/05:30pm 26.7 - - - - SW 7 11 4 6 - - 0.0
22/05:00pm 29.4 - - - - SSW 9 15 5 8 - - 0.0
22/04:30pm 31.0 - - - - SSW 13 20 7 11 - - 0.0
22/04:00pm 34.8 - - - - E 15 22 8 12 - - 0.0
22/03:30pm 35.2 - - - - E 15 24 8 13 - - 0.0
22/03:00pm 35.2 - - - - E 15 24 8 13 - - 0.0
22/02:30pm 35.0 - - - - E 17 32 9 17 - - 0.0
22/02:00pm 35.4 - - - - ESE 15 24 8 13 - - 0.0
22/01:30pm 35.2 - - - - NNE 13 30 7 16 - - 0.0
22/01:00pm 34.7 - - - - N 17 32 9 17 - - 0.0
22/12:30pm 34.3 - - - - NE 15 24 8 13 - - 0.0
22/12:00pm 34.1 - - - - NNE 13 24 7 13 - - 0.0
22/11:30am 32.3 - - - - E 11 17 6 9 - - 0.0
22/11:00am 30.5 - - - - SSE 11 17 6 9 - - 0.0
22/10:30am 28.6 - - - - SSE 13 17 7 9 - - 0.0
22/10:00am 28.3 - - - - SSW 17 24 9 13 - - 0.0
22/09:30am 28.1 - - - - SSE 11 15 6 8 - - 0.0
22/09:00am 26.2 - - - - SSE 9 17 5 9 - - 0.0
22/08:30am 23.3 - - - - SSE 11 17 6 9 - - 0.0

Other Formats:

Comma delimited format used in spreadsheet applications
http://www.bom.gov.au/fwo/IDW60801/IDW60801.95204.axf

JavaScript Object Notation format (JSON) in row-major order
http://www.bom.gov.au/fwo/IDW60801/IDW60801.95204.json